sensor_id;sensor_type;location;lat;lon;timestamp;P1;durP1;ratioP1;P2;durP2;ratioP2
17596;SDS011;8917;50.942;6.946;2022-09-24T00:01:42;6.60;;;5.57;;
17596;SDS011;8917;50.942;6.946;2022-09-24T00:04:10;8.83;;;6.13;;
17596;SDS011;8917;50.942;6.946;2022-09-24T00:06:38;9.50;;;5.67;;
17596;SDS011;8917;50.942;6.946;2022-09-24T00:09:08;6.87;;;5.73;;
17596;SDS011;8917;50.942;6.946;2022-09-24T00:11:36;9.47;;;4.87;;
17596;SDS011;8917;50.942;6.946;2022-09-24T00:14:04;8.90;;;5.30;;
17596;SDS011;8917;50.942;6.946;2022-09-24T00:16:32;7.07;;;5.73;;
17596;SDS011;8917;50.942;6.946;2022-09-24T00:18:59;7.27;;;5.30;;
17596;SDS011;8917;50.942;6.946;2022-09-24T00:21:29;6.77;;;5.30;;
17596;SDS011;8917;50.942;6.946;2022-09-24T00:23:57;8.80;;;5.67;;
17596;SDS011;8917;50.942;6.946;2022-09-24T00:26:26;7.53;;;5.33;;
17596;SDS011;8917;50.942;6.946;2022-09-24T00:29:12;7.27;;;5.03;;
17596;SDS011;8917;50.942;6.946;2022-09-24T00:31:40;10.60;;;5.70;;
17596;SDS011;8917;50.942;6.946;2022-09-24T00:34:07;7.03;;;5.20;;
17596;SDS011;8917;50.942;6.946;2022-09-24T00:36:35;6.73;;;5.20;;
17596;SDS011;8917;50.942;6.946;2022-09-24T00:39:02;7.07;;;5.60;;
17596;SDS011;8917;50.942;6.946;2022-09-24T00:41:32;7.33;;;5.20;;
17596;SDS011;8917;50.942;6.946;2022-09-24T00:44:00;9.77;;;5.63;;
17596;SDS011;8917;50.942;6.946;2022-09-24T00:46:28;9.47;;;6.23;;
17596;SDS011;8917;50.942;6.946;2022-09-24T00:48:57;7.00;;;5.60;;
17596;SDS011;8917;50.942;6.946;2022-09-24T00:51:26;6.43;;;5.23;;
17596;SDS011;8917;50.942;6.946;2022-09-24T00:53:55;8.00;;;5.90;;
17596;SDS011;8917;50.942;6.946;2022-09-24T00:56:25;7.77;;;5.30;;
17596;SDS011;8917;50.942;6.946;2022-09-24T00:58:55;7.50;;;6.00;;
17596;SDS011;8917;50.942;6.946;2022-09-24T01:01:23;9.67;;;5.90;;
17596;SDS011;8917;50.942;6.946;2022-09-24T01:03:54;7.37;;;6.00;;
17596;SDS011;8917;50.942;6.946;2022-09-24T01:06:22;9.13;;;6.67;;
17596;SDS011;8917;50.942;6.946;2022-09-24T01:08:53;7.20;;;5.83;;
17596;SDS011;8917;50.942;6.946;2022-09-24T01:11:25;8.77;;;6.27;;
17596;SDS011;8917;50.942;6.946;2022-09-24T01:14:07;8.07;;;7.13;;
17596;SDS011;8917;50.942;6.946;2022-09-24T01:16:43;7.67;;;6.27;;
17596;SDS011;8917;50.942;6.946;2022-09-24T01:19:19;6.60;;;5.83;;
17596;SDS011;8917;50.942;6.946;2022-09-24T01:21:48;8.70;;;6.27;;
17596;SDS011;8917;50.942;6.946;2022-09-24T01:24:38;8.73;;;6.40;;
17596;SDS011;8917;50.942;6.946;2022-09-24T01:27:10;8.57;;;5.57;;
17596;SDS011;8917;50.942;6.946;2022-09-24T01:29:47;6.17;;;5.17;;
17596;SDS011;8917;50.942;6.946;2022-09-24T01:32:17;7.40;;;5.80;;
17596;SDS011;8917;50.942;6.946;2022-09-24T01:34:49;7.37;;;6.33;;
17596;SDS011;8917;50.942;6.946;2022-09-24T01:37:20;8.30;;;5.73;;
17596;SDS011;8917;50.942;6.946;2022-09-24T01:39:48;8.83;;;5.83;;
17596;SDS011;8917;50.942;6.946;2022-09-24T01:42:18;8.00;;;5.90;;
17596;SDS011;8917;50.942;6.946;2022-09-24T01:44:50;9.00;;;6.33;;
17596;SDS011;8917;50.942;6.946;2022-09-24T01:47:19;9.97;;;6.27;;
17596;SDS011;8917;50.942;6.946;2022-09-24T01:49:50;7.30;;;6.17;;
17596;SDS011;8917;50.942;6.946;2022-09-24T01:52:18;7.37;;;5.63;;
17596;SDS011;8917;50.942;6.946;2022-09-24T01:54:49;7.70;;;5.63;;
17596;SDS011;8917;50.942;6.946;2022-09-24T01:57:19;8.00;;;5.13;;
17596;SDS011;8917;50.942;6.946;2022-09-24T01:59:47;6.37;;;5.77;;
17596;SDS011;8917;50.942;6.946;2022-09-24T02:02:21;8.20;;;5.37;;
17596;SDS011;8917;50.942;6.946;2022-09-24T02:04:55;6.47;;;5.47;;
17596;SDS011;8917;50.942;6.946;2022-09-24T02:07:25;7.67;;;5.30;;
17596;SDS011;8917;50.942;6.946;2022-09-24T02:09:54;7.97;;;5.30;;
17596;SDS011;8917;50.942;6.946;2022-09-24T02:12:22;7.43;;;5.23;;
17596;SDS011;8917;50.942;6.946;2022-09-24T02:14:54;6.67;;;4.83;;
17596;SDS011;8917;50.942;6.946;2022-09-24T02:17:24;6.80;;;5.67;;
17596;SDS011;8917;50.942;6.946;2022-09-24T02:19:56;8.73;;;5.00;;
17596;SDS011;8917;50.942;6.946;2022-09-24T02:22:26;9.03;;;5.43;;
17596;SDS011;8917;50.942;6.946;2022-09-24T02:24:57;6.57;;;5.50;;
17596;SDS011;8917;50.942;6.946;2022-09-24T02:27:30;7.23;;;6.03;;
17596;SDS011;8917;50.942;6.946;2022-09-24T02:29:58;5.53;;;4.73;;
17596;SDS011;8917;50.942;6.946;2022-09-24T02:32:28;9.47;;;5.70;;
17596;SDS011;8917;50.942;6.946;2022-09-24T02:34:56;7.20;;;5.23;;
17596;SDS011;8917;50.942;6.946;2022-09-24T02:37:25;7.40;;;5.33;;
17596;SDS011;8917;50.942;6.946;2022-09-24T02:39:53;7.47;;;5.67;;
17596;SDS011;8917;50.942;6.946;2022-09-24T02:42:20;9.10;;;5.37;;
17596;SDS011;8917;50.942;6.946;2022-09-24T02:44:48;7.83;;;5.67;;
17596;SDS011;8917;50.942;6.946;2022-09-24T02:47:16;9.57;;;5.83;;
17596;SDS011;8917;50.942;6.946;2022-09-24T02:49:46;7.17;;;5.90;;
17596;SDS011;8917;50.942;6.946;2022-09-24T02:52:14;7.20;;;5.73;;
17596;SDS011;8917;50.942;6.946;2022-09-24T02:54:42;7.97;;;5.50;;
17596;SDS011;8917;50.942;6.946;2022-09-24T02:57:10;7.53;;;6.13;;
17596;SDS011;8917;50.942;6.946;2022-09-24T02:59:37;7.10;;;5.80;;
17596;SDS011;8917;50.942;6.946;2022-09-24T03:02:04;6.90;;;5.50;;
17596;SDS011;8917;50.942;6.946;2022-09-24T03:04:32;8.53;;;5.63;;
17596;SDS011;8917;50.942;6.946;2022-09-24T03:07:00;7.00;;;6.30;;
17596;SDS011;8917;50.942;6.946;2022-09-24T03:09:28;9.63;;;6.07;;
17596;SDS011;8917;50.942;6.946;2022-09-24T03:11:55;9.23;;;6.00;;
17596;SDS011;8917;50.942;6.946;2022-09-24T03:14:25;7.20;;;5.37;;
17596;SDS011;8917;50.942;6.946;2022-09-24T03:16:52;10.03;;;5.77;;
17596;SDS011;8917;50.942;6.946;2022-09-24T03:19:20;7.00;;;5.63;;
17596;SDS011;8917;50.942;6.946;2022-09-24T03:21:47;9.53;;;6.00;;
17596;SDS011;8917;50.942;6.946;2022-09-24T03:24:16;7.97;;;5.50;;
17596;SDS011;8917;50.942;6.946;2022-09-24T03:26:43;7.63;;;5.70;;
17596;SDS011;8917;50.942;6.946;2022-09-24T03:29:10;9.33;;;5.37;;
17596;SDS011;8917;50.942;6.946;2022-09-24T03:31:38;9.37;;;5.83;;
17596;SDS011;8917;50.942;6.946;2022-09-24T03:34:06;7.00;;;5.30;;
17596;SDS011;8917;50.942;6.946;2022-09-24T03:36:33;7.97;;;5.30;;
17596;SDS011;8917;50.942;6.946;2022-09-24T03:39:00;7.57;;;5.23;;
17596;SDS011;8917;50.942;6.946;2022-09-24T03:41:29;7.13;;;5.67;;
17596;SDS011;8917;50.942;6.946;2022-09-24T03:43:56;6.47;;;5.43;;
17596;SDS011;8917;50.942;6.946;2022-09-24T03:46:25;6.00;;;4.87;;
17596;SDS011;8917;50.942;6.946;2022-09-24T03:48:56;7.57;;;5.13;;
17596;SDS011;8917;50.942;6.946;2022-09-24T03:51:25;7.13;;;4.87;;
17596;SDS011;8917;50.942;6.946;2022-09-24T03:53:52;7.60;;;5.00;;
17596;SDS011;8917;50.942;6.946;2022-09-24T03:56:19;6.47;;;4.93;;
17596;SDS011;8917;50.942;6.946;2022-09-24T03:58:48;6.43;;;5.17;;
17596;SDS011;8917;50.942;6.946;2022-09-24T04:01:16;7.37;;;5.57;;
17596;SDS011;8917;50.942;6.946;2022-09-24T04:03:44;8.73;;;5.53;;
17596;SDS011;8917;50.942;6.946;2022-09-24T04:06:12;5.30;;;4.50;;
17596;SDS011;8917;50.942;6.946;2022-09-24T04:08:39;7.77;;;5.23;;
17596;SDS011;8917;50.942;6.946;2022-09-24T04:11:10;6.80;;;5.10;;
17596;SDS011;8917;50.942;6.946;2022-09-24T04:13:37;5.83;;;5.27;;
17596;SDS011;8917;50.942;6.946;2022-09-24T04:16:06;7.43;;;5.10;;
17596;SDS011;8917;50.942;6.946;2022-09-24T04:18:34;9.07;;;4.97;;
17596;SDS011;8917;50.942;6.946;2022-09-24T04:21:01;5.40;;;4.90;;
17596;SDS011;8917;50.942;6.946;2022-09-24T04:23:29;8.20;;;5.10;;
17596;SDS011;8917;50.942;6.946;2022-09-24T04:25:59;11.63;;;5.23;;
17596;SDS011;8917;50.942;6.946;2022-09-24T04:28:27;5.87;;;4.63;;
17596;SDS011;8917;50.942;6.946;2022-09-24T04:30:55;5.93;;;5.33;;
17596;SDS011;8917;50.942;6.946;2022-09-24T04:33:23;8.03;;;5.20;;
17596;SDS011;8917;50.942;6.946;2022-09-24T04:35:51;7.17;;;5.10;;
17596;SDS011;8917;50.942;6.946;2022-09-24T04:38:18;7.10;;;5.53;;
17596;SDS011;8917;50.942;6.946;2022-09-24T04:40:46;5.63;;;5.13;;
17596;SDS011;8917;50.942;6.946;2022-09-24T04:43:13;8.17;;;5.50;;
17596;SDS011;8917;50.942;6.946;2022-09-24T04:45:43;6.30;;;5.20;;
17596;SDS011;8917;50.942;6.946;2022-09-24T04:48:10;6.47;;;5.23;;
17596;SDS011;8917;50.942;6.946;2022-09-24T04:50:39;6.43;;;5.00;;
17596;SDS011;8917;50.942;6.946;2022-09-24T04:53:07;5.97;;;5.00;;
17596;SDS011;8917;50.942;6.946;2022-09-24T04:55:34;5.53;;;5.03;;
17596;SDS011;8917;50.942;6.946;2022-09-24T04:58:02;7.27;;;5.00;;
17596;SDS011;8917;50.942;6.946;2022-09-24T05:00:29;8.00;;;5.33;;
17596;SDS011;8917;50.942;6.946;2022-09-24T05:02:57;8.20;;;5.13;;
17596;SDS011;8917;50.942;6.946;2022-09-24T05:05:27;6.10;;;4.80;;
17596;SDS011;8917;50.942;6.946;2022-09-24T05:07:57;7.47;;;4.70;;
17596;SDS011;8917;50.942;6.946;2022-09-24T05:10:25;7.07;;;5.37;;
17596;SDS011;8917;50.942;6.946;2022-09-24T05:12:53;6.97;;;4.60;;
17596;SDS011;8917;50.942;6.946;2022-09-24T05:15:20;6.23;;;5.03;;
17596;SDS011;8917;50.942;6.946;2022-09-24T05:17:48;6.53;;;4.37;;
17596;SDS011;8917;50.942;6.946;2022-09-24T05:20:15;7.00;;;4.53;;
17596;SDS011;8917;50.942;6.946;2022-09-24T05:22:43;4.87;;;4.33;;
17596;SDS011;8917;50.942;6.946;2022-09-24T05:25:12;6.10;;;4.77;;
17596;SDS011;8917;50.942;6.946;2022-09-24T05:27:42;6.83;;;4.40;;
17596;SDS011;8917;50.942;6.946;2022-09-24T05:30:09;5.67;;;4.60;;
17596;SDS011;8917;50.942;6.946;2022-09-24T05:32:37;7.53;;;4.70;;
17596;SDS011;8917;50.942;6.946;2022-09-24T05:35:04;5.47;;;4.57;;
17596;SDS011;8917;50.942;6.946;2022-09-24T05:37:33;5.27;;;4.77;;
17596;SDS011;8917;50.942;6.946;2022-09-24T05:40:04;5.60;;;4.63;;
17596;SDS011;8917;50.942;6.946;2022-09-24T05:42:47;6.47;;;4.87;;
17596;SDS011;8917;50.942;6.946;2022-09-24T05:45:15;5.27;;;4.77;;
17596;SDS011;8917;50.942;6.946;2022-09-24T05:47:43;5.63;;;4.53;;
17596;SDS011;8917;50.942;6.946;2022-09-24T05:50:10;6.27;;;4.57;;
17596;SDS011;8917;50.942;6.946;2022-09-24T05:52:38;5.27;;;4.60;;
17596;SDS011;8917;50.942;6.946;2022-09-24T05:55:05;7.23;;;5.07;;
17596;SDS011;8917;50.942;6.946;2022-09-24T05:57:33;5.43;;;4.57;;
17596;SDS011;8917;50.942;6.946;2022-09-24T06:00:02;9.97;;;5.40;;
17596;SDS011;8917;50.942;6.946;2022-09-24T06:02:30;5.33;;;4.83;;
17596;SDS011;8917;50.942;6.946;2022-09-24T06:04:57;6.13;;;4.47;;
17596;SDS011;8917;50.942;6.946;2022-09-24T06:07:25;5.57;;;4.60;;
17596;SDS011;8917;50.942;6.946;2022-09-24T06:09:52;5.10;;;4.60;;
17596;SDS011;8917;50.942;6.946;2022-09-24T06:12:19;5.70;;;5.00;;
17596;SDS011;8917;50.942;6.946;2022-09-24T06:14:47;7.03;;;4.93;;
17596;SDS011;8917;50.942;6.946;2022-09-24T06:17:16;7.37;;;5.30;;
17596;SDS011;8917;50.942;6.946;2022-09-24T06:19:43;7.53;;;5.63;;
17596;SDS011;8917;50.942;6.946;2022-09-24T06:22:12;7.57;;;5.13;;
17596;SDS011;8917;50.942;6.946;2022-09-24T06:24:39;5.30;;;4.80;;
17596;SDS011;8917;50.942;6.946;2022-09-24T06:27:06;5.63;;;5.13;;
17596;SDS011;8917;50.942;6.946;2022-09-24T06:29:34;7.83;;;5.00;;
17596;SDS011;8917;50.942;6.946;2022-09-24T06:32:03;7.33;;;5.50;;
17596;SDS011;8917;50.942;6.946;2022-09-24T06:34:31;6.13;;;4.80;;
17596;SDS011;8917;50.942;6.946;2022-09-24T06:36:59;13.80;;;8.47;;
17596;SDS011;8917;50.942;6.946;2022-09-24T06:39:26;22.43;;;18.40;;
17596;SDS011;8917;50.942;6.946;2022-09-24T06:41:56;10.90;;;5.87;;
17596;SDS011;8917;50.942;6.946;2022-09-24T06:44:23;5.17;;;4.67;;
17596;SDS011;8917;50.942;6.946;2022-09-24T06:46:51;5.63;;;4.97;;
17596;SDS011;8917;50.942;6.946;2022-09-24T06:49:19;10.00;;;5.40;;
17596;SDS011;8917;50.942;6.946;2022-09-24T06:51:47;9.77;;;5.50;;
17596;SDS011;8917;50.942;6.946;2022-09-24T06:54:15;6.20;;;5.27;;
17596;SDS011;8917;50.942;6.946;2022-09-24T06:56:45;5.33;;;4.83;;
17596;SDS011;8917;50.942;6.946;2022-09-24T06:59:12;7.73;;;5.07;;
17596;SDS011;8917;50.942;6.946;2022-09-24T07:01:40;5.53;;;5.03;;
17596;SDS011;8917;50.942;6.946;2022-09-24T07:04:07;6.30;;;5.70;;
17596;SDS011;8917;50.942;6.946;2022-09-24T07:06:35;5.87;;;5.27;;
17596;SDS011;8917;50.942;6.946;2022-09-24T07:09:18;8.13;;;5.40;;
17596;SDS011;8917;50.942;6.946;2022-09-24T07:11:45;6.53;;;5.33;;
17596;SDS011;8917;50.942;6.946;2022-09-24T07:14:14;6.97;;;6.27;;
17596;SDS011;8917;50.942;6.946;2022-09-24T07:16:41;8.20;;;5.70;;
17596;SDS011;8917;50.942;6.946;2022-09-24T07:19:11;7.57;;;5.80;;
17596;SDS011;8917;50.942;6.946;2022-09-24T07:21:38;9.87;;;5.93;;
17596;SDS011;8917;50.942;6.946;2022-09-24T07:24:05;6.73;;;5.73;;
17596;SDS011;8917;50.942;6.946;2022-09-24T07:26:34;6.80;;;5.83;;
17596;SDS011;8917;50.942;6.946;2022-09-24T07:29:02;7.63;;;5.63;;
17596;SDS011;8917;50.942;6.946;2022-09-24T07:31:30;11.40;;;6.53;;
17596;SDS011;8917;50.942;6.946;2022-09-24T07:33:57;6.87;;;5.90;;
17596;SDS011;8917;50.942;6.946;2022-09-24T07:36:25;10.07;;;5.63;;
17596;SDS011;8917;50.942;6.946;2022-09-24T07:38:56;6.83;;;5.97;;
17596;SDS011;8917;50.942;6.946;2022-09-24T07:41:26;6.53;;;5.93;;
17596;SDS011;8917;50.942;6.946;2022-09-24T07:43:56;12.00;;;6.07;;
17596;SDS011;8917;50.942;6.946;2022-09-24T07:46:24;7.50;;;6.07;;
17596;SDS011;8917;50.942;6.946;2022-09-24T07:48:54;8.87;;;6.10;;
17596;SDS011;8917;50.942;6.946;2022-09-24T07:51:21;7.03;;;5.77;;
17596;SDS011;8917;50.942;6.946;2022-09-24T07:53:50;6.63;;;5.93;;
17596;SDS011;8917;50.942;6.946;2022-09-24T07:56:17;8.83;;;6.47;;
17596;SDS011;8917;50.942;6.946;2022-09-24T07:58:46;6.77;;;5.63;;
17596;SDS011;8917;50.942;6.946;2022-09-24T08:01:16;9.87;;;6.23;;
17596;SDS011;8917;50.942;6.946;2022-09-24T08:03:43;9.10;;;7.00;;
17596;SDS011;8917;50.942;6.946;2022-09-24T08:06:11;7.47;;;6.10;;
17596;SDS011;8917;50.942;6.946;2022-09-24T08:08:38;8.37;;;6.40;;
17596;SDS011;8917;50.942;6.946;2022-09-24T08:11:12;9.20;;;6.40;;
17596;SDS011;8917;50.942;6.946;2022-09-24T08:13:41;8.00;;;6.53;;
17596;SDS011;8917;50.942;6.946;2022-09-24T08:16:09;8.33;;;6.83;;
17596;SDS011;8917;50.942;6.946;2022-09-24T08:18:38;10.47;;;6.97;;
17596;SDS011;8917;50.942;6.946;2022-09-24T08:21:06;10.57;;;7.10;;
17596;SDS011;8917;50.942;6.946;2022-09-24T08:23:39;9.73;;;6.87;;
17596;SDS011;8917;50.942;6.946;2022-09-24T08:26:06;6.97;;;6.27;;
17596;SDS011;8917;50.942;6.946;2022-09-24T08:28:34;8.93;;;6.70;;
17596;SDS011;8917;50.942;6.946;2022-09-24T08:31:02;9.80;;;7.47;;
17596;SDS011;8917;50.942;6.946;2022-09-24T08:33:32;11.80;;;7.07;;
17596;SDS011;8917;50.942;6.946;2022-09-24T08:36:03;9.10;;;7.17;;
17596;SDS011;8917;50.942;6.946;2022-09-24T08:38:31;7.60;;;6.83;;
17596;SDS011;8917;50.942;6.946;2022-09-24T08:41:02;9.80;;;7.33;;
17596;SDS011;8917;50.942;6.946;2022-09-24T08:43:36;10.97;;;7.43;;
17596;SDS011;8917;50.942;6.946;2022-09-24T08:46:09;10.10;;;7.27;;
17596;SDS011;8917;50.942;6.946;2022-09-24T08:48:58;10.53;;;6.93;;
17596;SDS011;8917;50.942;6.946;2022-09-24T08:51:27;10.87;;;7.37;;
17596;SDS011;8917;50.942;6.946;2022-09-24T08:54:01;10.53;;;7.60;;
17596;SDS011;8917;50.942;6.946;2022-09-24T08:56:33;11.17;;;8.33;;
17596;SDS011;8917;50.942;6.946;2022-09-24T08:59:01;8.83;;;7.70;;
17596;SDS011;8917;50.942;6.946;2022-09-24T09:01:33;9.20;;;7.70;;
17596;SDS011;8917;50.942;6.946;2022-09-24T09:04:03;9.40;;;8.07;;
17596;SDS011;8917;50.942;6.946;2022-09-24T09:06:39;9.47;;;7.87;;
17596;SDS011;8917;50.942;6.946;2022-09-24T09:09:10;12.63;;;8.00;;
17596;SDS011;8917;50.942;6.946;2022-09-24T09:11:39;12.10;;;8.30;;
17596;SDS011;8917;50.942;6.946;2022-09-24T09:14:08;10.63;;;8.00;;
17596;SDS011;8917;50.942;6.946;2022-09-24T09:16:39;10.43;;;8.37;;
17596;SDS011;8917;50.942;6.946;2022-09-24T09:19:08;11.07;;;8.67;;
17596;SDS011;8917;50.942;6.946;2022-09-24T09:21:40;12.27;;;8.97;;
17596;SDS011;8917;50.942;6.946;2022-09-24T09:24:11;11.27;;;9.47;;
17596;SDS011;8917;50.942;6.946;2022-09-24T09:26:41;10.77;;;9.07;;
17596;SDS011;8917;50.942;6.946;2022-09-24T09:29:09;11.27;;;9.17;;
17596;SDS011;8917;50.942;6.946;2022-09-24T09:31:38;13.33;;;9.00;;
17596;SDS011;8917;50.942;6.946;2022-09-24T09:34:18;12.50;;;9.23;;
17596;SDS011;8917;50.942;6.946;2022-09-24T09:36:52;17.20;;;10.60;;
17596;SDS011;8917;50.942;6.946;2022-09-24T09:39:25;15.10;;;10.20;;
17596;SDS011;8917;50.942;6.946;2022-09-24T09:41:56;14.37;;;11.60;;
17596;SDS011;8917;50.942;6.946;2022-09-24T09:44:26;15.87;;;12.03;;
17596;SDS011;8917;50.942;6.946;2022-09-24T09:46:56;14.83;;;10.63;;
17596;SDS011;8917;50.942;6.946;2022-09-24T09:49:26;17.07;;;11.47;;
17596;SDS011;8917;50.942;6.946;2022-09-24T09:51:55;12.90;;;10.87;;
17596;SDS011;8917;50.942;6.946;2022-09-24T09:54:34;13.97;;;11.13;;
17596;SDS011;8917;50.942;6.946;2022-09-24T09:57:02;16.07;;;11.97;;
17596;SDS011;8917;50.942;6.946;2022-09-24T09:59:30;14.40;;;11.23;;
17596;SDS011;8917;50.942;6.946;2022-09-24T10:01:58;15.37;;;13.07;;
17596;SDS011;8917;50.942;6.946;2022-09-24T10:04:27;17.00;;;12.00;;
17596;SDS011;8917;50.942;6.946;2022-09-24T10:07:04;16.70;;;12.10;;
17596;SDS011;8917;50.942;6.946;2022-09-24T10:09:31;16.10;;;12.27;;
17596;SDS011;8917;50.942;6.946;2022-09-24T10:12:05;16.33;;;12.30;;
17596;SDS011;8917;50.942;6.946;2022-09-24T10:14:33;16.83;;;13.50;;
17596;SDS011;8917;50.942;6.946;2022-09-24T10:17:00;19.43;;;14.30;;
17596;SDS011;8917;50.942;6.946;2022-09-24T10:19:30;17.40;;;13.57;;
17596;SDS011;8917;50.942;6.946;2022-09-24T10:22:05;17.67;;;13.43;;
17596;SDS011;8917;50.942;6.946;2022-09-24T10:24:34;16.83;;;14.10;;
17596;SDS011;8917;50.942;6.946;2022-09-24T10:27:09;18.37;;;13.83;;
17596;SDS011;8917;50.942;6.946;2022-09-24T10:29:36;18.90;;;13.87;;
17596;SDS011;8917;50.942;6.946;2022-09-24T10:32:22;18.90;;;14.43;;
17596;SDS011;8917;50.942;6.946;2022-09-24T10:34:53;19.77;;;15.37;;
17596;SDS011;8917;50.942;6.946;2022-09-24T10:37:21;17.03;;;14.40;;
17596;SDS011;8917;50.942;6.946;2022-09-24T10:39:59;19.53;;;14.87;;
17596;SDS011;8917;50.942;6.946;2022-09-24T10:42:29;15.40;;;13.53;;
17596;SDS011;8917;50.942;6.946;2022-09-24T10:44:58;16.10;;;14.07;;
17596;SDS011;8917;50.942;6.946;2022-09-24T10:47:26;16.40;;;14.60;;
17596;SDS011;8917;50.942;6.946;2022-09-24T10:50:06;20.23;;;15.87;;
17596;SDS011;8917;50.942;6.946;2022-09-24T10:52:42;21.07;;;16.10;;
17596;SDS011;8917;50.942;6.946;2022-09-24T10:55:16;21.47;;;16.20;;
17596;SDS011;8917;50.942;6.946;2022-09-24T10:57:54;24.13;;;17.23;;
17596;SDS011;8917;50.942;6.946;2022-09-24T11:00:23;22.57;;;16.20;;
17596;SDS011;8917;50.942;6.946;2022-09-24T11:03:00;19.20;;;16.23;;
17596;SDS011;8917;50.942;6.946;2022-09-24T11:05:35;19.93;;;16.30;;
17596;SDS011;8917;50.942;6.946;2022-09-24T11:08:05;23.30;;;17.27;;
17596;SDS011;8917;50.942;6.946;2022-09-24T11:10:46;25.27;;;18.50;;
17596;SDS011;8917;50.942;6.946;2022-09-24T11:13:21;25.57;;;15.50;;
17596;SDS011;8917;50.942;6.946;2022-09-24T11:16:07;24.77;;;17.27;;
17596;SDS011;8917;50.942;6.946;2022-09-24T11:18:39;23.23;;;15.53;;
17596;SDS011;8917;50.942;6.946;2022-09-24T11:21:13;20.40;;;14.70;;
17596;SDS011;8917;50.942;6.946;2022-09-24T11:23:54;21.50;;;16.30;;
17596;SDS011;8917;50.942;6.946;2022-09-24T11:26:28;19.90;;;15.40;;
17596;SDS011;8917;50.942;6.946;2022-09-24T11:29:03;21.67;;;14.60;;
17596;SDS011;8917;50.942;6.946;2022-09-24T11:31:33;18.30;;;14.90;;
17596;SDS011;8917;50.942;6.946;2022-09-24T11:34:06;17.90;;;14.13;;
17596;SDS011;8917;50.942;6.946;2022-09-24T11:36:41;18.83;;;13.93;;
17596;SDS011;8917;50.942;6.946;2022-09-24T11:39:23;17.67;;;14.07;;
17596;SDS011;8917;50.942;6.946;2022-09-24T11:41:58;16.80;;;14.07;;
17596;SDS011;8917;50.942;6.946;2022-09-24T11:44:35;16.77;;;12.97;;
17596;SDS011;8917;50.942;6.946;2022-09-24T11:47:11;19.20;;;13.07;;
17596;SDS011;8917;50.942;6.946;2022-09-24T11:49:44;16.77;;;13.57;;
17596;SDS011;8917;50.942;6.946;2022-09-24T11:52:22;15.33;;;12.83;;
17596;SDS011;8917;50.942;6.946;2022-09-24T11:54:53;16.27;;;12.27;;
17596;SDS011;8917;50.942;6.946;2022-09-24T11:57:26;17.53;;;12.57;;
17596;SDS011;8917;50.942;6.946;2022-09-24T11:59:55;16.63;;;12.70;;
17596;SDS011;8917;50.942;6.946;2022-09-24T12:02:25;16.00;;;12.37;;
17596;SDS011;8917;50.942;6.946;2022-09-24T12:04:56;13.47;;;11.13;;
17596;SDS011;8917;50.942;6.946;2022-09-24T12:07:27;15.13;;;11.80;;
17596;SDS011;8917;50.942;6.946;2022-09-24T12:09:58;15.03;;;11.80;;
17596;SDS011;8917;50.942;6.946;2022-09-24T12:12:31;14.90;;;11.67;;
17596;SDS011;8917;50.942;6.946;2022-09-24T12:15:02;15.57;;;11.10;;
17596;SDS011;8917;50.942;6.946;2022-09-24T12:17:34;10.80;;;8.67;;
17596;SDS011;8917;50.942;6.946;2022-09-24T12:20:07;12.57;;;9.83;;
17596;SDS011;8917;50.942;6.946;2022-09-24T12:22:35;13.40;;;9.67;;
17596;SDS011;8917;50.942;6.946;2022-09-24T12:25:04;14.33;;;10.90;;
17596;SDS011;8917;50.942;6.946;2022-09-24T12:27:34;11.73;;;9.90;;
17596;SDS011;8917;50.942;6.946;2022-09-24T12:30:04;12.80;;;10.17;;
17596;SDS011;8917;50.942;6.946;2022-09-24T12:32:51;16.60;;;11.03;;
17596;SDS011;8917;50.942;6.946;2022-09-24T12:35:25;14.53;;;11.23;;
17596;SDS011;8917;50.942;6.946;2022-09-24T12:37:57;12.57;;;9.97;;
17596;SDS011;8917;50.942;6.946;2022-09-24T12:40:44;12.07;;;9.83;;
17596;SDS011;8917;50.942;6.946;2022-09-24T12:43:21;15.00;;;10.07;;
17596;SDS011;8917;50.942;6.946;2022-09-24T12:45:53;12.87;;;9.67;;
17596;SDS011;8917;50.942;6.946;2022-09-24T12:48:20;12.33;;;9.57;;
17596;SDS011;8917;50.942;6.946;2022-09-24T12:50:53;15.50;;;10.87;;
17596;SDS011;8917;50.942;6.946;2022-09-24T12:53:26;13.90;;;11.07;;
17596;SDS011;8917;50.942;6.946;2022-09-24T12:55:57;13.73;;;10.53;;
17596;SDS011;8917;50.942;6.946;2022-09-24T12:58:27;18.40;;;15.90;;
17596;SDS011;8917;50.942;6.946;2022-09-24T13:01:04;12.10;;;10.00;;
17596;SDS011;8917;50.942;6.946;2022-09-24T13:03:33;13.73;;;10.37;;
17596;SDS011;8917;50.942;6.946;2022-09-24T13:06:01;11.93;;;9.90;;
17596;SDS011;8917;50.942;6.946;2022-09-24T13:08:36;13.67;;;9.60;;
17596;SDS011;8917;50.942;6.946;2022-09-24T13:11:04;11.77;;;9.60;;
17596;SDS011;8917;50.942;6.946;2022-09-24T13:13:58;10.50;;;9.40;;
17596;SDS011;8917;50.942;6.946;2022-09-24T13:16:26;13.00;;;9.43;;
17596;SDS011;8917;50.942;6.946;2022-09-24T13:18:55;13.63;;;8.80;;
17596;SDS011;8917;50.942;6.946;2022-09-24T13:21:27;13.43;;;9.03;;
17596;SDS011;8917;50.942;6.946;2022-09-24T13:23:55;10.67;;;8.57;;
17596;SDS011;8917;50.942;6.946;2022-09-24T13:26:27;11.10;;;9.00;;
17596;SDS011;8917;50.942;6.946;2022-09-24T13:28:55;12.23;;;10.03;;
17596;SDS011;8917;50.942;6.946;2022-09-24T13:31:29;12.23;;;9.77;;
17596;SDS011;8917;50.942;6.946;2022-09-24T13:33:59;13.33;;;9.33;;
17596;SDS011;8917;50.942;6.946;2022-09-24T13:36:28;11.07;;;8.93;;
17596;SDS011;8917;50.942;6.946;2022-09-24T13:39:00;11.57;;;9.00;;
17596;SDS011;8917;50.942;6.946;2022-09-24T13:41:30;13.07;;;9.10;;
17596;SDS011;8917;50.942;6.946;2022-09-24T13:44:00;12.20;;;8.90;;
17596;SDS011;8917;50.942;6.946;2022-09-24T13:46:38;13.90;;;10.87;;
17596;SDS011;8917;50.942;6.946;2022-09-24T13:49:07;11.40;;;8.83;;
17596;SDS011;8917;50.942;6.946;2022-09-24T13:51:36;11.47;;;9.13;;
17596;SDS011;8917;50.942;6.946;2022-09-24T13:54:05;8.53;;;7.60;;
17596;SDS011;8917;50.942;6.946;2022-09-24T13:56:38;9.57;;;7.87;;
17596;SDS011;8917;50.942;6.946;2022-09-24T13:59:09;12.13;;;8.30;;
17596;SDS011;8917;50.942;6.946;2022-09-24T14:01:39;10.33;;;8.63;;
17596;SDS011;8917;50.942;6.946;2022-09-24T14:04:13;12.40;;;8.77;;
17596;SDS011;8917;50.942;6.946;2022-09-24T14:06:42;12.57;;;8.70;;
17596;SDS011;8917;50.942;6.946;2022-09-24T14:09:14;10.87;;;8.27;;
17596;SDS011;8917;50.942;6.946;2022-09-24T14:11:47;10.20;;;8.07;;
17596;SDS011;8917;50.942;6.946;2022-09-24T14:14:14;11.27;;;8.60;;
17596;SDS011;8917;50.942;6.946;2022-09-24T14:16:45;12.73;;;8.33;;
17596;SDS011;8917;50.942;6.946;2022-09-24T14:19:13;10.17;;;7.23;;
17596;SDS011;8917;50.942;6.946;2022-09-24T14:21:41;9.73;;;8.23;;
17596;SDS011;8917;50.942;6.946;2022-09-24T14:24:12;9.63;;;6.87;;
17596;SDS011;8917;50.942;6.946;2022-09-24T14:26:41;9.53;;;7.90;;
17596;SDS011;8917;50.942;6.946;2022-09-24T14:29:10;9.10;;;7.30;;
17596;SDS011;8917;50.942;6.946;2022-09-24T14:31:41;7.80;;;6.73;;
17596;SDS011;8917;50.942;6.946;2022-09-24T14:34:23;9.37;;;7.67;;
17596;SDS011;8917;50.942;6.946;2022-09-24T14:36:59;10.80;;;8.43;;
17596;SDS011;8917;50.942;6.946;2022-09-24T14:39:35;9.37;;;8.13;;
17596;SDS011;8917;50.942;6.946;2022-09-24T14:42:06;10.20;;;7.93;;
17596;SDS011;8917;50.942;6.946;2022-09-24T14:44:34;10.27;;;8.20;;
17596;SDS011;8917;50.942;6.946;2022-09-24T14:47:18;11.20;;;8.37;;
17596;SDS011;8917;50.942;6.946;2022-09-24T14:49:50;8.97;;;7.83;;
17596;SDS011;8917;50.942;6.946;2022-09-24T14:52:25;10.60;;;8.77;;
17596;SDS011;8917;50.942;6.946;2022-09-24T14:54:59;10.23;;;7.77;;
17596;SDS011;8917;50.942;6.946;2022-09-24T14:57:27;11.43;;;8.00;;
17596;SDS011;8917;50.942;6.946;2022-09-24T15:00:01;13.70;;;8.73;;
17596;SDS011;8917;50.942;6.946;2022-09-24T15:02:30;13.07;;;9.43;;
17596;SDS011;8917;50.942;6.946;2022-09-24T15:05:06;12.57;;;9.63;;
17596;SDS011;8917;50.942;6.946;2022-09-24T15:07:34;13.33;;;10.17;;
17596;SDS011;8917;50.942;6.946;2022-09-24T15:10:03;10.80;;;9.50;;
17596;SDS011;8917;50.942;6.946;2022-09-24T15:12:33;12.73;;;8.70;;